sensor_id;sensor_type;location;lat;lon;timestamp;pressure;altitude;pressure_sealevel;temperature;humidity
11198;BME280;5655;48.744;9.162;2023-07-20T00:00:22;96073.28;;;20.80;100.00
11198;BME280;5655;48.744;9.162;2023-07-20T00:02:50;96077.25;;;20.79;100.00
11198;BME280;5655;48.744;9.162;2023-07-20T00:05:16;96073.28;;;20.80;100.00
11198;BME280;5655;48.744;9.162;2023-07-20T00:07:43;96088.53;;;20.90;100.00
11198;BME280;5655;48.744;9.162;2023-07-20T00:10:09;96081.81;;;20.69;100.00
11198;BME280;5655;48.744;9.162;2023-07-20T00:12:34;96076.66;;;20.46;100.00
11198;BME280;5655;48.744;9.162;2023-07-20T00:15:00;96076.53;;;20.37;100.00
11198;BME280;5655;48.744;9.162;2023-07-20T00:17:25;96081.44;;;20.42;100.00
11198;BME280;5655;48.744;9.162;2023-07-20T00:19:50;96078.84;;;20.51;100.00
11198;BME280;5655;48.744;9.162;2023-07-20T00:22:15;96077.66;;;20.52;100.00
11198;BME280;5655;48.744;9.162;2023-07-20T00:24:41;96078.28;;;20.31;100.00
11198;BME280;5655;48.744;9.162;2023-07-20T00:27:06;96082.75;;;20.37;100.00
11198;BME280;5655;48.744;9.162;2023-07-20T00:29:31;96084.28;;;20.38;100.00
11198;BME280;5655;48.744;9.162;2023-07-20T00:31:58;96071.13;;;20.50;100.00
11198;BME280;5655;48.744;9.162;2023-07-20T00:34:23;96076.69;;;20.59;100.00
11198;BME280;5655;48.744;9.162;2023-07-20T00:36:49;96082.13;;;20.59;100.00
11198;BME280;5655;48.744;9.162;2023-07-20T00:39:14;96087.00;;;20.51;100.00
11198;BME280;5655;48.744;9.162;2023-07-20T00:41:39;96080.91;;;20.60;100.00
11198;BME280;5655;48.744;9.162;2023-07-20T00:44:05;96082.97;;;20.30;100.00
11198;BME280;5655;48.744;9.162;2023-07-20T00:46:31;96087.91;;;20.19;100.00
11198;BME280;5655;48.744;9.162;2023-07-20T00:48:57;96085.81;;;20.11;100.00
11198;BME280;5655;48.744;9.162;2023-07-20T00:51:25;96080.69;;;20.00;100.00
11198;BME280;5655;48.744;9.162;2023-07-20T00:53:51;96097.34;;;20.44;100.00
11198;BME280;5655;48.744;9.162;2023-07-20T00:56:17;96087.34;;;20.12;100.00
11198;BME280;5655;48.744;9.162;2023-07-20T00:58:43;96095.72;;;20.17;100.00
11198;BME280;5655;48.744;9.162;2023-07-20T01:01:08;96090.81;;;20.12;100.00
11198;BME280;5655;48.744;9.162;2023-07-20T01:03:33;96094.56;;;20.18;100.00
11198;BME280;5655;48.744;9.162;2023-07-20T01:08:42;96092.50;;;19.93;100.00
11198;BME280;5655;48.744;9.162;2023-07-20T01:11:25;96096.50;;;19.89;100.00
11198;BME280;5655;48.744;9.162;2023-07-20T01:13:53;96086.03;;;19.75;100.00
11198;BME280;5655;48.744;9.162;2023-07-20T01:16:19;96090.16;;;19.67;100.00
11198;BME280;5655;48.744;9.162;2023-07-20T01:18:44;96092.63;;;19.61;100.00
11198;BME280;5655;48.744;9.162;2023-07-20T01:21:13;96090.09;;;19.83;100.00
11198;BME280;5655;48.744;9.162;2023-07-20T01:24:30;96095.94;;;19.81;100.00
11198;BME280;5655;48.744;9.162;2023-07-20T01:29:25;96083.47;;;19.84;100.00
11198;BME280;5655;48.744;9.162;2023-07-20T01:31:56;96079.44;;;19.76;100.00
11198;BME280;5655;48.744;9.162;2023-07-20T01:34:23;96083.19;;;19.66;100.00
11198;BME280;5655;48.744;9.162;2023-07-20T01:36:50;96089.22;;;19.57;100.00
11198;BME280;5655;48.744;9.162;2023-07-20T01:39:18;96082.69;;;19.55;100.00
11198;BME280;5655;48.744;9.162;2023-07-20T01:41:44;96085.50;;;19.35;100.00
11198;BME280;5655;48.744;9.162;2023-07-20T01:44:10;96084.25;;;19.23;100.00
11198;BME280;5655;48.744;9.162;2023-07-20T01:46:37;96076.81;;;19.11;100.00
11198;BME280;5655;48.744;9.162;2023-07-20T01:49:02;96081.50;;;19.39;100.00
11198;BME280;5655;48.744;9.162;2023-07-20T01:51:28;96081.34;;;19.30;100.00
11198;BME280;5655;48.744;9.162;2023-07-20T01:53:53;96085.59;;;19.31;100.00
11198;BME280;5655;48.744;9.162;2023-07-20T01:56:18;96069.03;;;19.42;100.00
11198;BME280;5655;48.744;9.162;2023-07-20T01:58:44;96076.28;;;19.32;100.00
11198;BME280;5655;48.744;9.162;2023-07-20T02:01:09;96070.50;;;19.14;100.00
11198;BME280;5655;48.744;9.162;2023-07-20T02:03:34;96075.44;;;19.19;100.00
11198;BME280;5655;48.744;9.162;2023-07-20T02:06:00;96075.94;;;19.14;100.00
11198;BME280;5655;48.744;9.162;2023-07-20T02:08:26;96080.59;;;19.14;100.00
11198;BME280;5655;48.744;9.162;2023-07-20T02:10:51;96075.19;;;19.14;100.00
11198;BME280;5655;48.744;9.162;2023-07-20T02:13:17;96078.56;;;19.01;100.00
11198;BME280;5655;48.744;9.162;2023-07-20T02:15:42;96084.22;;;19.07;100.00
11198;BME280;5655;48.744;9.162;2023-07-20T02:18:08;96079.16;;;19.09;100.00
11198;BME280;5655;48.744;9.162;2023-07-20T02:20:34;96081.47;;;19.11;100.00
11198;BME280;5655;48.744;9.162;2023-07-20T02:22:59;96079.16;;;19.09;100.00
11198;BME280;5655;48.744;9.162;2023-07-20T02:25:25;96082.56;;;18.97;100.00
11198;BME280;5655;48.744;9.162;2023-07-20T02:27:50;96070.84;;;19.00;100.00
11198;BME280;5655;48.744;9.162;2023-07-20T02:30:15;96084.09;;;18.98;100.00
11198;BME280;5655;48.744;9.162;2023-07-20T02:32:41;96073.41;;;18.91;100.00
11198;BME280;5655;48.744;9.162;2023-07-20T02:35:11;96083.25;;;18.85;100.00
11198;BME280;5655;48.744;9.162;2023-07-20T02:37:36;96080.53;;;18.85;100.00
11198;BME280;5655;48.744;9.162;2023-07-20T02:40:02;96076.97;;;18.72;100.00
11198;BME280;5655;48.744;9.162;2023-07-20T02:42:29;96077.78;;;18.69;100.00
11198;BME280;5655;48.744;9.162;2023-07-20T02:44:54;96081.88;;;18.77;100.00
11198;BME280;5655;48.744;9.162;2023-07-20T02:47:19;96083.06;;;18.76;100.00
11198;BME280;5655;48.744;9.162;2023-07-20T02:49:45;96084.72;;;18.70;100.00
11198;BME280;5655;48.744;9.162;2023-07-20T02:52:10;96091.59;;;18.74;100.00
11198;BME280;5655;48.744;9.162;2023-07-20T02:54:35;96088.72;;;18.65;100.00
11198;BME280;5655;48.744;9.162;2023-07-20T02:57:01;96095.75;;;18.63;100.00
11198;BME280;5655;48.744;9.162;2023-07-20T02:59:26;96091.00;;;18.67;100.00
11198;BME280;5655;48.744;9.162;2023-07-20T03:01:52;96087.25;;;18.61;100.00
11198;BME280;5655;48.744;9.162;2023-07-20T03:04:17;96095.41;;;18.61;100.00
11198;BME280;5655;48.744;9.162;2023-07-20T03:06:43;96088.97;;;18.54;100.00
11198;BME280;5655;48.744;9.162;2023-07-20T03:09:08;96093.03;;;18.43;100.00
11198;BME280;5655;48.744;9.162;2023-07-20T03:11:34;96089.91;;;18.44;100.00
11198;BME280;5655;48.744;9.162;2023-07-20T03:13:59;96090.75;;;18.41;100.00
11198;BME280;5655;48.744;9.162;2023-07-20T03:16:25;96092.28;;;18.42;100.00
11198;BME280;5655;48.744;9.162;2023-07-20T03:18:51;96087.34;;;18.57;100.00
11198;BME280;5655;48.744;9.162;2023-07-20T03:21:17;96089.94;;;18.80;100.00
11198;BME280;5655;48.744;9.162;2023-07-20T03:23:42;96095.78;;;18.95;100.00
11198;BME280;5655;48.744;9.162;2023-07-20T03:26:08;96095.09;;;18.91;100.00
11198;BME280;5655;48.744;9.162;2023-07-20T03:28:38;96094.25;;;18.94;100.00
11198;BME280;5655;48.744;9.162;2023-07-20T03:31:04;96101.88;;;18.99;100.00
11198;BME280;5655;48.744;9.162;2023-07-20T03:33:30;96102.13;;;19.04;100.00
11198;BME280;5655;48.744;9.162;2023-07-20T03:35:56;96101.88;;;18.99;100.00
11198;BME280;5655;48.744;9.162;2023-07-20T03:38:22;96100.44;;;18.94;100.00
11198;BME280;5655;48.744;9.162;2023-07-20T03:40:52;96098.34;;;19.02;100.00
11198;BME280;5655;48.744;9.162;2023-07-20T03:43:18;96110.53;;;19.10;100.00
11198;BME280;5655;48.744;9.162;2023-07-20T03:45:44;96107.81;;;19.10;100.00
11198;BME280;5655;48.744;9.162;2023-07-20T03:48:10;96104.44;;;19.22;100.00
11198;BME280;5655;48.744;9.162;2023-07-20T03:50:36;96107.81;;;19.10;100.00
11198;BME280;5655;48.744;9.162;2023-07-20T03:53:01;96101.72;;;19.06;100.00
11198;BME280;5655;48.744;9.162;2023-07-20T03:55:26;96103.75;;;19.02;100.00
11198;BME280;5655;48.744;9.162;2023-07-20T03:57:52;96106.72;;;18.91;100.00
11198;BME280;5655;48.744;9.162;2023-07-20T04:00:17;96110.16;;;18.76;100.00
11198;BME280;5655;48.744;9.162;2023-07-20T04:02:43;96104.47;;;18.54;100.00
11198;BME280;5655;48.744;9.162;2023-07-20T04:05:08;96109.13;;;18.53;100.00
11198;BME280;5655;48.744;9.162;2023-07-20T04:07:34;96102.75;;;18.60;100.00
11198;BME280;5655;48.744;9.162;2023-07-20T04:09:59;96115.53;;;18.59;100.00
11198;BME280;5655;48.744;9.162;2023-07-20T04:12:24;96114.22;;;18.48;100.00
11198;BME280;5655;48.744;9.162;2023-07-20T04:14:50;96110.34;;;18.49;100.00
11198;BME280;5655;48.744;9.162;2023-07-20T04:17:15;96121.13;;;18.52;100.00
11198;BME280;5655;48.744;9.162;2023-07-20T04:19:40;96118.19;;;18.43;100.00
11198;BME280;5655;48.744;9.162;2023-07-20T04:22:05;96120.41;;;18.48;100.00
11198;BME280;5655;48.744;9.162;2023-07-20T04:24:31;96122.44;;;18.44;100.00
11198;BME280;5655;48.744;9.162;2023-07-20T04:26:56;96121.59;;;18.47;100.00
11198;BME280;5655;48.744;9.162;2023-07-20T04:29:21;96119.94;;;18.53;100.00
11198;BME280;5655;48.744;9.162;2023-07-20T04:31:47;96115.34;;;18.50;100.00
11198;BME280;5655;48.744;9.162;2023-07-20T04:34:12;96115.75;;;18.69;100.00
11198;BME280;5655;48.744;9.162;2023-07-20T04:36:37;96117.88;;;18.77;100.00
11198;BME280;5655;48.744;9.162;2023-07-20T04:39:03;96114.44;;;18.93;100.00
11198;BME280;5655;48.744;9.162;2023-07-20T04:41:29;96111.53;;;19.00;100.00
11198;BME280;5655;48.744;9.162;2023-07-20T04:43:55;96120.22;;;19.11;100.00
11198;BME280;5655;48.744;9.162;2023-07-20T04:46:20;96120.53;;;19.13;100.00
11198;BME280;5655;48.744;9.162;2023-07-20T04:48:46;96115.78;;;19.01;100.00
11198;BME280;5655;48.744;9.162;2023-07-20T04:51:13;96124.34;;;18.99;100.00
11198;BME280;5655;48.744;9.162;2023-07-20T04:53:38;96119.34;;;19.14;100.00
11198;BME280;5655;48.744;9.162;2023-07-20T04:56:03;96124.09;;;19.10;100.00
11198;BME280;5655;48.744;9.162;2023-07-20T04:58:29;96120.53;;;19.29;100.00
11198;BME280;5655;48.744;9.162;2023-07-20T05:00:54;96124.78;;;19.14;100.00
11198;BME280;5655;48.744;9.162;2023-07-20T05:03:20;96127.13;;;19.12;100.00
11198;BME280;5655;48.744;9.162;2023-07-20T05:05:47;96126.31;;;19.15;100.00
11198;BME280;5655;48.744;9.162;2023-07-20T05:08:13;96129.69;;;19.19;100.00
11198;BME280;5655;48.744;9.162;2023-07-20T05:10:38;96135.31;;;19.28;100.00
11198;BME280;5655;48.744;9.162;2023-07-20T05:13:03;96124.25;;;19.35;100.00
11198;BME280;5655;48.744;9.162;2023-07-20T05:15:29;96119.09;;;19.41;100.00
11198;BME280;5655;48.744;9.162;2023-07-20T05:17:54;96117.41;;;19.47;100.00
11198;BME280;5655;48.744;9.162;2023-07-20T05:20:19;96120.22;;;19.43;100.00
11198;BME280;5655;48.744;9.162;2023-07-20T05:22:45;96125.28;;;19.41;100.00
11198;BME280;5655;48.744;9.162;2023-07-20T05:25:11;96122.41;;;19.48;100.00
11198;BME280;5655;48.744;9.162;2023-07-20T05:27:37;96115.63;;;19.57;100.00
11198;BME280;5655;48.744;9.162;2023-07-20T05:30:04;96120.84;;;19.64;100.00
11198;BME280;5655;48.744;9.162;2023-07-20T05:32:30;96119.34;;;19.46;100.00
11198;BME280;5655;48.744;9.162;2023-07-20T05:34:55;96118.31;;;19.57;100.00
11198;BME280;5655;48.744;9.162;2023-07-20T05:37:21;96120.34;;;19.69;100.00
11198;BME280;5655;48.744;9.162;2023-07-20T05:39:46;96119.66;;;19.65;100.00
11198;BME280;5655;48.744;9.162;2023-07-20T05:42:11;96121.88;;;19.70;100.00
11198;BME280;5655;48.744;9.162;2023-07-20T05:44:37;96122.84;;;19.92;100.00
11198;BME280;5655;48.744;9.162;2023-07-20T05:47:02;96119.88;;;19.86;100.00
11198;BME280;5655;48.744;9.162;2023-07-20T05:49:28;96128.78;;;19.87;100.00
11198;BME280;5655;48.744;9.162;2023-07-20T05:51:54;96128.63;;;20.07;100.00
11198;BME280;5655;48.744;9.162;2023-07-20T05:54:21;96128.84;;;20.00;100.00
11198;BME280;5655;48.744;9.162;2023-07-20T05:56:46;96128.59;;;19.94;100.00
11198;BME280;5655;48.744;9.162;2023-07-20T05:59:12;96134.06;;;20.07;100.00
11198;BME280;5655;48.744;9.162;2023-07-20T06:01:37;96131.97;;;19.98;100.00
11198;BME280;5655;48.744;9.162;2023-07-20T06:04:02;96135.03;;;20.00;100.00
11198;BME280;5655;48.744;9.162;2023-07-20T06:06:28;96136.16;;;20.15;100.00
11198;BME280;5655;48.744;9.162;2023-07-20T06:08:54;96140.03;;;20.02;100.00
11198;BME280;5655;48.744;9.162;2023-07-20T06:11:19;96132.13;;;20.07;100.00
11198;BME280;5655;48.744;9.162;2023-07-20T06:13:45;96138.34;;;20.20;100.00
11198;BME280;5655;48.744;9.162;2023-07-20T06:16:10;96139.94;;;20.34;100.00
11198;BME280;5655;48.744;9.162;2023-07-20T06:18:36;96136.81;;;20.19;100.00
11198;BME280;5655;48.744;9.162;2023-07-20T06:21:01;96142.41;;;20.28;100.00
11198;BME280;5655;48.744;9.162;2023-07-20T06:23:27;96143.88;;;20.46;100.00
11198;BME280;5655;48.744;9.162;2023-07-20T06:25:53;96132.94;;;20.62;100.00
11198;BME280;5655;48.744;9.162;2023-07-20T06:28:18;96139.00;;;20.41;100.00
11198;BME280;5655;48.744;9.162;2023-07-20T06:30:43;96137.38;;;20.56;100.00
11198;BME280;5655;48.744;9.162;2023-07-20T06:33:09;96143.88;;;20.46;100.00
11198;BME280;5655;48.744;9.162;2023-07-20T06:35:34;96142.59;;;20.63;100.00
11198;BME280;5655;48.744;9.162;2023-07-20T06:38:03;96140.53;;;20.67;100.00
11198;BME280;5655;48.744;9.162;2023-07-20T06:40:29;96147.59;;;20.52;100.00
11198;BME280;5655;48.744;9.162;2023-07-20T06:42:54;96136.97;;;20.70;100.00
11198;BME280;5655;48.744;9.162;2023-07-20T06:45:20;96135.22;;;20.76;100.00
11198;BME280;5655;48.744;9.162;2023-07-20T06:47:45;96135.97;;;21.02;100.00
11198;BME280;5655;48.744;9.162;2023-07-20T06:50:11;96140.31;;;20.61;100.00
11198;BME280;5655;48.744;9.162;2023-07-20T06:52:36;96139.44;;;20.64;100.00
11198;BME280;5655;48.744;9.162;2023-07-20T06:55:02;96136.63;;;20.80;100.00
11198;BME280;5655;48.744;9.162;2023-07-20T06:57:27;96135.88;;;20.80;100.00
11198;BME280;5655;48.744;9.162;2023-07-20T06:59:53;96142.72;;;20.72;100.00
11198;BME280;5655;48.744;9.162;2023-07-20T07:02:19;96141.13;;;20.87;100.00
11198;BME280;5655;48.744;9.162;2023-07-20T07:04:44;96137.09;;;20.79;100.00
11198;BME280;5655;48.744;9.162;2023-07-20T07:07:10;96132.09;;;21.15;100.00
11198;BME280;5655;48.744;9.162;2023-07-20T07:09:36;96137.22;;;21.13;100.00
11198;BME280;5655;48.744;9.162;2023-07-20T07:12:01;96129.16;;;21.22;100.00
11198;BME280;5655;48.744;9.162;2023-07-20T07:14:26;96132.31;;;21.21;100.00
11198;BME280;5655;48.744;9.162;2023-07-20T07:16:51;96125.34;;;21.20;100.00
11198;BME280;5655;48.744;9.162;2023-07-20T07:19:17;96125.84;;;21.27;100.00
11198;BME280;5655;48.744;9.162;2023-07-20T07:21:42;96121.97;;;21.63;100.00
11198;BME280;5655;48.744;9.162;2023-07-20T07:24:07;96131.22;;;21.31;100.00
11198;BME280;5655;48.744;9.162;2023-07-20T07:26:35;96136.38;;;21.51;100.00
11198;BME280;5655;48.744;9.162;2023-07-20T07:29:01;96131.91;;;21.57;100.00
11198;BME280;5655;48.744;9.162;2023-07-20T07:31:26;96115.63;;;21.66;100.00
11198;BME280;5655;48.744;9.162;2023-07-20T07:33:51;96110.78;;;21.61;100.00
11198;BME280;5655;48.744;9.162;2023-07-20T07:36:17;96119.03;;;21.70;100.00
11198;BME280;5655;48.744;9.162;2023-07-20T07:38:42;96116.78;;;21.56;100.00
11198;BME280;5655;48.744;9.162;2023-07-20T07:41:08;96119.94;;;21.54;100.00
11198;BME280;5655;48.744;9.162;2023-07-20T07:43:33;96119.28;;;21.50;100.00
11198;BME280;5655;48.744;9.162;2023-07-20T07:46:00;96120.41;;;21.74;100.00
11198;BME280;5655;48.744;9.162;2023-07-20T07:48:25;96112.97;;;22.09;100.00
11198;BME280;5655;48.744;9.162;2023-07-20T07:50:51;96119.91;;;22.23;100.00
11198;BME280;5655;48.744;9.162;2023-07-20T07:53:16;96117.97;;;22.54;100.00
11198;BME280;5655;48.744;9.162;2023-07-20T07:55:41;96114.63;;;22.29;100.00
11198;BME280;5655;48.744;9.162;2023-07-20T07:58:07;96115.97;;;22.24;100.00
11198;BME280;5655;48.744;9.162;2023-07-20T08:00:32;96118.81;;;22.21;100.00
11198;BME280;5655;48.744;9.162;2023-07-20T08:02:57;96116.66;;;22.15;100.00
11198;BME280;5655;48.744;9.162;2023-07-20T08:05:23;96121.84;;;22.23;100.00
11198;BME280;5655;48.744;9.162;2023-07-20T08:07:49;96114.28;;;22.17;100.00
11198;BME280;5655;48.744;9.162;2023-07-20T08:10:14;96120.44;;;22.40;100.00
11198;BME280;5655;48.744;9.162;2023-07-20T08:12:39;96115.50;;;22.69;100.00
11198;BME280;5655;48.744;9.162;2023-07-20T08:15:05;96115.78;;;22.18;100.00
11198;BME280;5655;48.744;9.162;2023-07-20T08:17:31;96107.50;;;22.53;100.00
11198;BME280;5655;48.744;9.162;2023-07-20T08:19:56;96112.25;;;22.92;100.00
11198;BME280;5655;48.744;9.162;2023-07-20T08:22:21;96101.81;;;23.00;100.00
11198;BME280;5655;48.744;9.162;2023-07-20T08:24:46;96119.25;;;22.93;100.00
11198;BME280;5655;48.744;9.162;2023-07-20T08:27:12;96112.88;;;22.96;100.00
11198;BME280;5655;48.744;9.162;2023-07-20T08:29:37;96107.19;;;22.73;100.00
11198;BME280;5655;48.744;9.162;2023-07-20T08:32:04;96106.94;;;22.89;100.00
11198;BME280;5655;48.744;9.162;2023-07-20T08:34:30;96109.03;;;22.54;100.00
11198;BME280;5655;48.744;9.162;2023-07-20T08:36:56;96117.41;;;22.90;100.00
11198;BME280;5655;48.744;9.162;2023-07-20T08:39:22;96110.19;;;23.05;100.00
11198;BME280;5655;48.744;9.162;2023-07-20T08:41:48;96114.81;;;22.87;100.00
11198;BME280;5655;48.744;9.162;2023-07-20T08:44:14;96112.41;;;22.67;100.00
11198;BME280;5655;48.744;9.162;2023-07-20T08:46:40;96114.09;;;23.04;100.00
11198;BME280;5655;48.744;9.162;2023-07-20T08:49:06;96104.13;;;23.11;100.00
11198;BME280;5655;48.744;9.162;2023-07-20T08:51:32;96112.31;;;23.11;100.00
11198;BME280;5655;48.744;9.162;2023-07-20T08:53:59;96120.34;;;23.05;100.00
11198;BME280;5655;48.744;9.162;2023-07-20T08:56:25;96116.56;;;23.12;100.00
11198;BME280;5655;48.744;9.162;2023-07-20T08:58:52;96107.88;;;22.95;100.00
11198;BME280;5655;48.744;9.162;2023-07-20T09:01:19;96107.78;;;23.26;100.00
11198;BME280;5655;48.744;9.162;2023-07-20T09:03:45;96106.63;;;23.36;100.00
11198;BME280;5655;48.744;9.162;2023-07-20T09:06:11;96110.84;;;23.28;100.00
11198;BME280;5655;48.744;9.162;2023-07-20T09:08:40;96102.97;;;23.30;100.00
11198;BME280;5655;48.744;9.162;2023-07-20T09:11:05;96100.91;;;23.70;100.00
11198;BME280;5655;48.744;9.162;2023-07-20T09:13:35;96098.50;;;23.72;100.00
11198;BME280;5655;48.744;9.162;2023-07-20T09:16:00;96105.19;;;23.71;100.00
11198;BME280;5655;48.744;9.162;2023-07-20T09:18:27;96094.53;;;24.01;100.00
11198;BME280;5655;48.744;9.162;2023-07-20T09:20:57;96102.44;;;23.80;100.00
11198;BME280;5655;48.744;9.162;2023-07-20T09:23:35;96102.28;;;24.02;100.00
11198;BME280;5655;48.744;9.162;2023-07-20T09:26:09;96101.81;;;24.04;100.00
11198;BME280;5655;48.744;9.162;2023-07-20T09:29:05;96096.06;;;24.02;100.00
11198;BME280;5655;48.744;9.162;2023-07-20T09:31:32;96091.34;;;24.02;100.00
11198;BME280;5655;48.744;9.162;2023-07-20T09:33:57;96094.84;;;23.93;100.00
11198;BME280;5655;48.744;9.162;2023-07-20T09:36:23;96103.50;;;24.28;100.00
11198;BME280;5655;48.744;9.162;2023-07-20T09:38:48;96100.91;;;24.07;100.00
11198;BME280;5655;48.744;9.162;2023-07-20T09:41:14;96103.03;;;23.66;100.00
11198;BME280;5655;48.744;9.162;2023-07-20T09:43:45;96108.81;;;23.77;100.00
11198;BME280;5655;48.744;9.162;2023-07-20T09:46:11;96105.59;;;23.61;100.00
11198;BME280;5655;48.744;9.162;2023-07-20T09:48:36;96107.91;;;23.71;100.00
11198;BME280;5655;48.744;9.162;2023-07-20T09:51:03;96107.00;;;23.92;100.00
11198;BME280;5655;48.744;9.162;2023-07-20T09:53:32;96102.72;;;24.10;100.00
11198;BME280;5655;48.744;9.162;2023-07-20T09:55:58;96100.00;;;24.19;100.00
11198;BME280;5655;48.744;9.162;2023-07-20T09:58:25;96098.09;;;24.61;92.37
11198;BME280;5655;48.744;9.162;2023-07-20T10:00:51;96091.53;;;25.10;90.75
11198;BME280;5655;48.744;9.162;2023-07-20T10:03:28;96093.09;;;25.02;91.01
11198;BME280;5655;48.744;9.162;2023-07-20T10:06:00;96096.84;;;24.71;89.76
11198;BME280;5655;48.744;9.162;2023-07-20T10:08:29;96086.88;;;25.01;91.55
11198;BME280;5655;48.744;9.162;2023-07-20T10:10:57;96097.28;;;24.28;89.60
11198;BME280;5655;48.744;9.162;2023-07-20T10:13:27;96099.63;;;24.53;90.88
11198;BME280;5655;48.744;9.162;2023-07-20T10:16:05;96090.88;;;24.31;87.93
11198;BME280;5655;48.744;9.162;2023-07-20T10:18:48;96089.38;;;23.93;89.52
11198;BME280;5655;48.744;9.162;2023-07-20T10:21:17;96078.41;;;24.21;91.71
11198;BME280;5655;48.744;9.162;2023-07-20T10:23:42;96082.81;;;24.78;90.85
11198;BME280;5655;48.744;9.162;2023-07-20T10:26:09;96082.16;;;24.51;85.72
11198;BME280;5655;48.744;9.162;2023-07-20T10:28:36;96077.19;;;24.40;87.79
11198;BME280;5655;48.744;9.162;2023-07-20T10:31:02;96080.06;;;24.88;88.07
11198;BME280;5655;48.744;9.162;2023-07-20T10:33:27;96063.84;;;25.08;82.56
11198;BME280;5655;48.744;9.162;2023-07-20T10:35:58;96066.00;;;25.51;77.18
11198;BME280;5655;48.744;9.162;2023-07-20T10:41:21;96049.03;;;26.00;76.64
11198;BME280;5655;48.744;9.162;2023-07-20T10:43:49;96049.75;;;25.86;75.51
11198;BME280;5655;48.744;9.162;2023-07-20T10:46:42;96056.84;;;26.81;76.50
11198;BME280;5655;48.744;9.162;2023-07-20T10:49:09;96055.00;;;27.07;67.08
11198;BME280;5655;48.744;9.162;2023-07-20T10:51:59;96058.72;;;27.04;66.56
11198;BME280;5655;48.744;9.162;2023-07-20T10:56:55;96053.03;;;26.43;61.52
11198;BME280;5655;48.744;9.162;2023-07-20T11:01:49;96054.19;;;25.45;64.92
11198;BME280;5655;48.744;9.162;2023-07-20T11:04:16;96042.75;;;25.70;62.53
11198;BME280;5655;48.744;9.162;2023-07-20T11:06:44;96053.75;;;26.00;61.23
11198;BME280;5655;48.744;9.162;2023-07-20T11:09:12;96049.03;;;26.15;59.96
11198;BME280;5655;48.744;9.162;2023-07-20T11:11:44;96041.13;;;26.32;59.58
11198;BME280;5655;48.744;9.162;2023-07-20T11:14:30;96029.19;;;27.19;57.30
11198;BME280;5655;48.744;9.162;2023-07-20T11:17:11;96045.41;;;26.68;53.98
11198;BME280;5655;48.744;9.162;2023-07-20T11:19:36;96054.59;;;27.14;54.22
11198;BME280;5655;48.744;9.162;2023-07-20T11:22:04;96041.50;;;27.24;54.67
11198;BME280;5655;48.744;9.162;2023-07-20T11:24:32;96038.41;;;27.16;52.87
11198;BME280;5655;48.744;9.162;2023-07-20T11:26:57;96038.38;;;26.96;55.06
11198;BME280;5655;48.744;9.162;2023-07-20T11:29:23;96041.84;;;26.47;54.59
11198;BME280;5655;48.744;9.162;2023-07-20T11:31:50;96040.97;;;26.85;55.83
11198;BME280;5655;48.744;9.162;2023-07-20T11:34:20;96026.31;;;27.28;56.13
11198;BME280;5655;48.744;9.162;2023-07-20T11:36:51;96027.19;;;27.80;52.70
11198;BME280;5655;48.744;9.162;2023-07-20T11:39:18;96031.31;;;27.90;52.40
11198;BME280;5655;48.744;9.162;2023-07-20T11:41:51;96029.47;;;28.08;54.46
11198;BME280;5655;48.744;9.162;2023-07-20T11:44:17;96029.13;;;28.20;50.78
11198;BME280;5655;48.744;9.162;2023-07-20T11:46:43;96027.16;;;28.26;50.40
11198;BME280;5655;48.744;9.162;2023-07-20T11:49:12;96017.44;;;28.05;50.75
11198;BME280;5655;48.744;9.162;2023-07-20T11:51:39;96018.69;;;28.04;52.01
11198;BME280;5655;48.744;9.162;2023-07-20T11:54:06;96025.34;;;28.49;49.33
11198;BME280;5655;48.744;9.162;2023-07-20T11:56:32;96015.25;;;28.40;48.26
11198;BME280;5655;48.744;9.162;2023-07-20T11:58:58;96022.03;;;28.71;48.10
11198;BME280;5655;48.744;9.162;2023-07-20T12:01:29;96018.38;;;28.85;47.66
11198;BME280;5655;48.744;9.162;2023-07-20T12:03:57;96016.25;;;28.37;47.49
11198;BME280;5655;48.744;9.162;2023-07-20T12:06:24;96014.63;;;28.57;47.10
11198;BME280;5655;48.744;9.162;2023-07-20T12:08:50;96019.44;;;28.30;46.19
11198;BME280;5655;48.744;9.162;2023-07-20T12:11:36;96001.94;;;28.33;47.14
11198;BME280;5655;48.744;9.162;2023-07-20T12:14:03;96008.06;;;28.49;47.20
11198;BME280;5655;48.744;9.162;2023-07-20T12:16:30;95997.47;;;27.84;46.29
11198;BME280;5655;48.744;9.162;2023-07-20T12:19:02;95997.09;;;27.71;47.94
11198;BME280;5655;48.744;9.162;2023-07-20T12:21:29;96000.88;;;28.25;47.65
11198;BME280;5655;48.744;9.162;2023-07-20T12:23:56;95994.41;;;29.02;47.80
11198;BME280;5655;48.744;9.162;2023-07-20T12:26:22;95999.88;;;29.39;45.41
11198;BME280;5655;48.744;9.162;2023-07-20T12:28:49;95994.34;;;28.91;44.41
11198;BME280;5655;48.744;9.162;2023-07-20T12:31:15;95994.97;;;29.17;44.46
11198;BME280;5655;48.744;9.162;2023-07-20T12:33:40;95990.38;;;29.51;44.64
11198;BME280;5655;48.744;9.162;2023-07-20T12:36:06;95989.84;;;29.47;44.62
11198;BME280;5655;48.744;9.162;2023-07-20T12:38:32;95984.06;;;29.40;44.00
11198;BME280;5655;48.744;9.162;2023-07-20T12:40:59;95981.88;;;29.55;44.62
11198;BME280;5655;48.744;9.162;2023-07-20T12:43:25;95977.97;;;29.24;43.69
11198;BME280;5655;48.744;9.162;2023-07-20T12:45:51;95985.13;;;28.94;44.40
11198;BME280;5655;48.744;9.162;2023-07-20T12:48:16;95990.94;;;28.33;46.10
11198;BME280;5655;48.744;9.162;2023-07-20T12:50:41;95979.06;;;28.22;45.56
11198;BME280;5655;48.744;9.162;2023-07-20T12:53:07;95968.06;;;27.96;48.01
11198;BME280;5655;48.744;9.162;2023-07-20T12:55:33;95973.91;;;28.29;47.68
11198;BME280;5655;48.744;9.162;2023-07-20T12:57:58;95961.75;;;28.84;44.81
11198;BME280;5655;48.744;9.162;2023-07-20T13:00:23;95961.47;;;29.30;46.06
11198;BME280;5655;48.744;9.162;2023-07-20T13:02:49;95959.78;;;29.38;46.39
11198;BME280;5655;48.744;9.162;2023-07-20T13:05:15;95953.63;;;29.93;44.42
11198;BME280;5655;48.744;9.162;2023-07-20T13:07:41;95956.09;;;29.80;43.34
11198;BME280;5655;48.744;9.162;2023-07-20T13:10:07;95956.34;;;29.82;43.56
11198;BME280;5655;48.744;9.162;2023-07-20T13:12:34;95951.63;;;30.22;42.87